Time;durP1;ratioP1;P1;durP2;ratioP2;P2;SDS_P1;SDS_P2;PMS_P1;PMS_P2;Temp;Humidity;BMP_temperature;BMP_pressure;BME280_temperature;BME280_humidity;BME280_pressure;Samples;Min_cycle;Max_cycle;Signal;HPM_P1;HPM_P2
2023/05/11 00:00:28;;;;;;;3.30;1.50;;;;;;;20.40;68.59;100171.97;5079124;28;20549;-62
2023/05/11 00:02:54;;;;;;;2.33;1.40;;;;;;;20.39;68.39;100171.16;5068462;28;20532;-62
2023/05/11 00:05:19;;;;;;;5.53;1.23;;;;;;;20.39;68.57;100168.31;5067299;28;20240;-61
2023/05/11 00:07:45;;;;;;;3.60;1.23;;;;;;;20.40;68.34;100166.25;5050097;28;20232;-61
2023/05/11 00:10:10;;;;;;;3.27;1.03;;;;;;;20.39;68.40;100162.56;5067803;28;20186;-61
2023/05/11 00:12:35;;;;;;;6.00;1.13;;;;;;;20.37;68.63;100167.84;5068670;28;20183;-62
2023/05/11 00:15:01;;;;;;;5.70;1.20;;;;;;;20.37;68.26;100165.00;5049718;28;20179;-62
2023/05/11 00:17:27;;;;;;;2.27;1.10;;;;;;;20.36;68.43;100157.63;5067166;28;20321;-61
2023/05/11 00:19:52;;;;;;;2.70;1.23;;;;;;;20.37;68.20;100156.38;5050195;28;20159;-61
2023/05/11 00:22:19;;;;;;;1.63;0.93;;;;;;;20.38;68.55;100162.97;5067010;28;20556;-62
2023/05/11 00:24:44;;;;;;;2.10;0.90;;;;;;;20.37;68.30;100167.84;5067687;28;20437;-62
2023/05/11 00:27:10;;;;;;;4.33;1.10;;;;;;;20.36;68.48;100166.22;5067892;28;20209;-62
2023/05/11 00:29:35;;;;;;;2.07;1.10;;;;;;;20.37;68.33;100169.91;5066428;28;20183;-62
2023/05/11 00:32:01;;;;;;;2.73;0.90;;;;;;;20.36;68.71;100165.41;5067015;28;20194;-62
2023/05/11 00:34:26;;;;;;;2.20;1.00;;;;;;;20.36;68.59;100169.09;5065526;28;20658;-62
2023/05/11 00:36:52;;;;;;;2.07;1.07;;;;;;;20.36;68.68;100169.09;5066595;28;20193;-61
2023/05/11 00:39:17;;;;;;;1.80;0.90;;;;;;;20.34;68.58;100165.81;5048957;28;20171;-62
2023/05/11 00:41:43;;;;;;;4.27;1.43;;;;;;;20.34;68.66;100162.94;5048250;28;20187;-62
2023/05/11 00:44:09;;;;;;;2.20;1.03;;;;;;;20.33;68.26;100155.56;5067819;28;20653;-61
2023/05/11 00:46:34;;;;;;;4.33;1.30;;;;;;;20.34;68.42;100162.09;5048496;28;20615;-62
2023/05/11 00:48:59;;;;;;;2.70;1.10;;;;;;;20.33;68.31;100155.56;5067960;28;20190;-61
2023/05/11 00:51:26;;;;;;;5.30;1.00;;;;;;;20.35;68.46;100160.88;5070110;28;20572;-61
2023/05/11 00:53:52;;;;;;;2.60;1.53;;;;;;;20.33;68.65;100155.56;5075234;28;20533;-62
2023/05/11 00:56:18;;;;;;;5.27;1.30;;;;;;;20.34;68.50;100160.06;5087664;28;20419;-61
2023/05/11 00:58:44;;;;;;;3.30;1.10;;;;;;;20.33;68.47;100157.59;5081795;28;20305;-61
2023/05/11 01:01:09;;;;;;;2.17;0.90;;;;;;;20.32;68.53;100159.63;5050202;28;20474;-62
2023/05/11 01:03:35;;;;;;;2.77;1.13;;;;;;;20.32;68.51;100156.75;5067656;28;20164;-61
2023/05/11 01:06:43;;;;;;;2.00;0.97;;;;;;;20.33;68.44;100160.47;5066446;28;20248;-62
2023/05/11 01:09:14;;;;;;;1.60;0.90;;;;;;;20.33;68.66;100157.59;5050083;28;20662;-62
2023/05/11 01:11:47;;;;;;;2.57;1.23;;;;;;;20.32;68.34;100150.22;5066891;28;20472;-62
2023/05/11 01:14:20;;;;;;;2.73;1.13;;;;;;;20.31;68.67;100157.19;5067406;28;20429;-61
2023/05/11 01:16:46;;;;;;;3.40;0.80;;;;;;;20.30;68.24;100150.59;5049291;28;20480;-61
2023/05/11 01:19:23;;;;;;;3.40;0.80;;;;;;;20.31;68.33;100157.97;5067598;28;20418;-62
2023/05/11 01:21:49;;;;;;;2.63;0.90;;;;;;;20.32;68.21;100158.81;5032876;28;20258;-61
2023/05/11 01:24:20;;;;;;;2.07;1.10;;;;;;;20.31;68.77;100152.25;5032739;28;20470;-62
2023/05/11 01:27:34;;;;;;;2.37;0.93;;;;;;;20.31;68.43;100155.13;5066029;28;20429;-61
2023/05/11 01:30:28;;;;;;;1.40;0.70;;;;;;;20.31;68.61;100157.19;5067635;28;20432;-61
2023/05/11 01:32:54;;;;;;;1.30;0.70;;;;;;;20.31;68.48;100154.31;5067246;28;20417;-61
2023/05/11 01:35:22;;;;;;;2.50;1.10;;;;;;;20.30;68.51;100150.59;5049102;28;20907;-61
2023/05/11 01:37:50;;;;;;;2.17;1.03;;;;;;;20.30;68.51;100162.06;5048479;28;20476;-62
2023/05/11 01:40:16;;;;;;;2.27;0.90;;;;;;;20.29;68.54;100151.84;5066434;28;20448;-61
2023/05/11 01:42:47;;;;;;;2.70;0.87;;;;;;;20.30;68.45;100155.50;5067247;28;20417;-61
2023/05/11 01:45:13;;;;;;;2.60;0.93;;;;;;;20.29;68.33;100148.97;5065782;28;20437;-62
2023/05/11 01:47:39;;;;;;;2.10;1.10;;;;;;;20.29;68.28;100154.69;5052472;28;20424;-62
2023/05/11 01:50:05;;;;;;;1.60;0.90;;;;;;;20.29;68.48;100153.88;5070737;28;20201;-61
2023/05/11 01:52:31;;;;;;;2.00;1.10;;;;;;;20.29;68.35;100151.00;5054372;28;20540;-61
2023/05/11 01:54:56;;;;;;;2.40;1.50;;;;;;;20.28;68.57;100147.31;5051975;28;20447;-62
2023/05/11 01:57:22;;;;;;;1.60;0.80;;;;;;;20.28;68.75;100152.22;5070832;28;20211;-61
2023/05/11 01:59:48;;;;;;;1.50;0.77;;;;;;;20.28;68.64;100153.06;5037891;28;20183;-61
2023/05/11 02:02:13;;;;;;;7.50;1.10;;;;;;;20.27;68.29;100148.53;5052594;28;20564;-64
2023/05/11 02:04:39;;;;;;;1.90;0.70;;;;;;;20.26;68.39;100146.88;5070870;28;20421;-61
2023/05/11 02:07:05;;;;;;;2.33;0.70;;;;;;;20.27;68.67;100153.44;5070211;28;20241;-63
2023/05/11 02:09:31;;;;;;;2.10;0.90;;;;;;;20.28;68.98;100152.22;5034346;28;20351;-62
2023/05/11 02:11:56;;;;;;;2.17;1.23;;;;;;;20.27;68.31;100157.13;5035795;28;20504;-61
2023/05/11 02:14:21;;;;;;;1.80;0.90;;;;;;;20.26;68.68;100155.47;5051644;28;20190;-62
2023/05/11 02:16:47;;;;;;;2.37;0.70;;;;;;;20.27;68.37;100157.13;5052076;28;20344;-61
2023/05/11 02:19:12;;;;;;;2.30;1.00;;;;;;;20.27;68.27;100148.53;5050740;28;20241;-62
2023/05/11 02:21:38;;;;;;;2.90;0.90;;;;;;;20.27;68.50;100147.72;5051898;28;20171;-61
2023/05/11 02:24:04;;;;;;;1.63;0.87;;;;;;;20.27;68.25;100151.38;5069413;28;20159;-62
2023/05/11 02:26:30;;;;;;;1.80;0.90;;;;;;;20.26;68.43;100152.63;5068159;28;20187;-61
2023/05/11 02:28:56;;;;;;;1.40;0.80;;;;;;;20.27;68.56;100150.59;5034569;28;20886;-61
2023/05/11 02:31:26;;;;;;;1.97;0.80;;;;;;;20.26;68.43;100151.81;5068546;28;20205;-61
2023/05/11 02:33:52;;;;;;;1.43;0.80;;;;;;;20.26;68.33;100146.06;5051931;28;20183;-62
2023/05/11 02:36:20;;;;;;;1.70;0.80;;;;;;;20.26;68.27;100155.47;5068740;28;20421;-63
2023/05/11 02:38:45;;;;;;;3.27;0.73;;;;;;;20.26;68.47;100155.47;5070174;28;20461;-61
2023/05/11 02:41:13;;;;;;;1.60;0.90;;;;;;;20.24;68.61;100152.19;5052277;28;20447;-63
2023/05/11 02:43:41;;;;;;;5.83;1.00;;;;;;;20.25;68.42;100153.84;5037126;28;20249;-62
2023/05/11 02:46:10;;;;;;;1.70;1.00;;;;;;;20.23;68.49;100150.56;5051902;28;20869;-62
2023/05/11 02:48:41;;;;;;;2.00;1.00;;;;;;;20.24;68.83;100155.06;5051055;28;20471;-62
2023/05/11 02:51:07;;;;;;;1.70;0.80;;;;;;;20.24;68.38;100160.81;5032150;28;20913;-61
2023/05/11 02:53:33;;;;;;;1.40;0.67;;;;;;;20.25;68.66;100156.72;5030817;28;20422;-62
2023/05/11 02:55:58;;;;;;;1.83;0.80;;;;;;;20.24;68.43;100155.06;5024806;28;20199;-62
2023/05/11 02:58:23;;;;;;;1.60;0.80;;;;;;;20.25;68.64;100147.28;5063468;28;20199;-62
2023/05/11 03:00:49;;;;;;;2.17;0.80;;;;;;;20.23;68.26;100150.56;5068325;28;20187;-62
2023/05/11 03:03:14;;;;;;;6.20;1.03;;;;;;;20.24;68.25;100154.22;5069787;28;20171;-61
2023/05/11 03:05:40;;;;;;;1.90;0.80;;;;;;;20.25;68.56;100147.28;5069185;28;20183;-61
2023/05/11 03:08:05;;;;;;;2.50;1.00;;;;;;;20.24;68.81;100159.97;5050589;28;20226;-62
2023/05/11 03:10:31;;;;;;;2.90;1.03;;;;;;;20.24;68.59;100151.38;5069169;28;20235;-62
2023/05/11 03:13:06;;;;;;;1.50;0.77;;;;;;;20.23;68.62;100150.56;5068708;28;20183;-63
2023/05/11 03:15:31;;;;;;;3.10;1.10;;;;;;;20.23;68.45;100144.81;5030556;28;20669;-62
2023/05/11 03:17:57;;;;;;;1.50;0.80;;;;;;;20.23;68.54;100144.81;5031406;28;20466;-62
2023/05/11 03:20:22;;;;;;;4.00;1.10;;;;;;;20.22;68.64;100143.16;5048126;28;20284;-62
2023/05/11 03:22:47;;;;;;;3.00;0.80;;;;;;;20.21;68.41;100144.38;5035076;28;20179;-62
2023/05/11 03:25:13;;;;;;;2.43;0.80;;;;;;;20.23;68.46;100150.56;5050614;28;20175;-62
2023/05/11 03:27:40;;;;;;;2.10;0.90;;;;;;;20.22;68.34;100140.28;5050414;28;20183;-62
2023/05/11 03:30:08;;;;;;;1.40;0.80;;;;;;;20.21;68.39;100144.38;5068947;28;20167;-62
2023/05/11 03:32:35;;;;;;;1.60;0.80;;;;;;;20.22;68.62;100150.94;5049542;28;20441;-62
2023/05/11 03:35:00;;;;;;;4.13;0.90;;;;;;;20.21;68.46;100141.50;5050650;28;20425;-62
2023/05/11 03:37:26;;;;;;;1.90;0.80;;;;;;;20.21;68.59;100141.50;5050313;28;20461;-63
2023/05/11 03:39:53;;;;;;;2.60;0.77;;;;;;;20.21;68.53;100144.38;5048525;28;20195;-61
2023/05/11 03:42:18;;;;;;;1.80;0.80;;;;;;;20.22;68.48;100145.22;5067949;28;20175;-62
2023/05/11 03:44:45;;;;;;;3.53;0.80;;;;;;;20.21;68.48;100147.25;5031043;28;20452;-62
2023/05/11 03:47:11;;;;;;;1.40;0.67;;;;;;;20.21;68.42;100147.25;5049919;28;20159;-62
2023/05/11 03:49:36;;;;;;;2.10;0.80;;;;;;;20.21;68.68;100147.25;5033402;28;20893;-61
2023/05/11 03:52:03;;;;;;;1.50;0.80;;;;;;;20.21;68.28;100140.72;5048827;28;20187;-62
2023/05/11 03:54:28;;;;;;;1.80;0.87;;;;;;;20.20;68.63;100139.88;5050398;28;20186;-61
2023/05/11 03:56:54;;;;;;;2.20;0.87;;;;;;;20.20;68.53;100130.44;5067392;28;20449;-62
2023/05/11 03:59:19;;;;;;;3.00;0.77;;;;;;;20.19;68.35;100128.78;5050282;28;20178;-61
2023/05/11 04:01:45;;;;;;;1.50;0.80;;;;;;;20.20;68.26;100139.03;5068509;28;20669;-62
2023/05/11 04:04:10;;;;;;;1.73;0.80;;;;;;;20.20;68.65;100131.28;5049441;28;20639;-63
2023/05/11 04:06:36;;;;;;;2.33;0.70;;;;;;;20.19;68.31;100137.41;5050012;28;20704;-62
2023/05/11 04:09:01;;;;;;;6.23;0.90;;;;;;;20.18;68.56;100130.84;5064489;28;20298;-62
2023/05/11 04:11:29;;;;;;;1.73;0.90;;;;;;;20.18;68.79;100125.13;5065523;28;20171;-62
2023/05/11 04:13:54;;;;;;;2.93;0.93;;;;;;;20.20;68.36;100141.91;5066879;28;20163;-62
2023/05/11 04:16:20;;;;;;;1.50;0.70;;;;;;;20.18;68.43;100133.72;5047412;28;20844;-62
2023/05/11 04:18:45;;;;;;;1.50;0.70;;;;;;;20.18;68.63;100142.31;5048265;28;20206;-62
2023/05/11 04:21:10;;;;;;;1.57;0.80;;;;;;;20.19;68.58;100143.13;5067602;28;20232;-63
2023/05/11 04:23:37;;;;;;;1.80;0.80;;;;;;;20.19;68.48;100140.25;5067981;28;20304;-62
2023/05/11 04:26:02;;;;;;;1.80;0.70;;;;;;;20.19;68.44;100140.25;5066097;28;20187;-62
2023/05/11 04:28:28;;;;;;;1.83;0.90;;;;;;;20.18;68.59;100138.63;5067918;28;20421;-61
2023/05/11 04:30:56;;;;;;;1.90;0.90;;;;;;;20.17;68.47;100139.84;5066733;28;20190;-62
2023/05/11 04:33:24;;;;;;;4.60;0.87;;;;;;;20.17;68.39;100137.78;5068141;28;20175;-61
2023/05/11 04:35:50;;;;;;;1.60;0.70;;;;;;;20.17;68.56;100140.66;5067571;28;20432;-62
2023/05/11 04:38:16;;;;;;;2.37;0.90;;;;;;;20.18;68.29;100147.22;5067961;28;20547;-62
2023/05/11 04:40:42;;;;;;;1.90;1.10;;;;;;;20.16;68.25;100139.00;5053588;28;20435;-61
2023/05/11 04:43:07;;;;;;;1.50;0.90;;;;;;;20.17;68.47;100143.53;5075756;28;20555;-61
2023/05/11 04:45:33;;;;;;;2.00;0.70;;;;;;;20.17;68.47;100143.53;5067334;28;20179;-61
2023/05/11 04:47:58;;;;;;;1.40;0.70;;;;;;;20.16;68.43;100150.47;5067827;28;20171;-61
2023/05/11 04:50:23;;;;;;;1.87;0.80;;;;;;;20.15;68.47;100140.25;5066821;28;20186;-62
2023/05/11 04:52:49;;;;;;;1.80;0.80;;;;;;;20.17;68.28;100142.72;5068178;28;20694;-62
2023/05/11 04:55:15;;;;;;;2.53;1.03;;;;;;;20.16;68.35;100143.94;5066993;28;20870;-63
2023/05/11 04:57:40;;;;;;;1.67;0.70;;;;;;;20.16;68.40;100141.88;5050520;28;20218;-63
2023/05/11 05:00:07;;;;;;;1.70;0.90;;;;;;;20.16;68.34;100141.88;5049465;28;20250;-62
2023/05/11 05:02:32;;;;;;;2.40;0.90;;;;;;;20.16;68.44;100144.75;5066772;28;20649;-61
2023/05/11 05:04:59;;;;;;;1.80;0.90;;;;;;;20.16;68.51;100144.75;5065995;28;20421;-61
2023/05/11 05:07:25;;;;;;;1.60;0.90;;;;;;;20.16;68.35;100147.59;5064950;28;20270;-61
2023/05/11 05:09:50;;;;;;;2.60;0.63;;;;;;;20.16;68.50;100143.94;5067184;28;20445;-61
2023/05/11 05:12:16;;;;;;;3.17;0.70;;;;;;;20.16;68.70;100156.22;5047673;28;20587;-61
2023/05/11 05:14:41;;;;;;;3.20;0.80;;;;;;;20.16;68.61;100149.66;5065756;28;20700;-62
2023/05/11 05:17:06;;;;;;;2.33;0.70;;;;;;;20.16;68.35;100158.28;5049714;28;20239;-62
2023/05/11 05:19:32;;;;;;;1.77;0.80;;;;;;;20.16;68.32;100158.28;5049812;28;20183;-62
2023/05/11 05:21:57;;;;;;;2.13;0.87;;;;;;;20.16;68.72;100161.13;5065816;28;20197;-63
2023/05/11 05:24:23;;;;;;;5.00;1.13;;;;;;;20.16;66.53;100161.94;5055847;28;20252;-64
2023/05/11 05:26:48;;;;;;;3.60;1.87;;;;;;;20.35;67.20;100164.56;5069965;28;20202;-64
2023/05/11 05:29:14;;;;;;;5.80;3.37;;;;;;;20.53;67.11;100159.00;5070064;28;20191;-64
2023/05/11 05:31:39;;;;;;;11.70;3.50;;;;;;;20.34;66.42;100160.06;5068756;28;20213;-64
2023/05/11 05:34:05;;;;;;;9.80;2.93;;;;;;;20.16;62.45;100166.88;5068985;28;20735;-64
2023/05/11 05:36:31;;;;;;;4.40;2.00;;;;;;;20.06;62.63;100159.75;5063525;28;20589;-64
2023/05/11 05:38:56;;;;;;;5.13;2.77;;;;;;;20.19;61.62;100164.03;5069944;28;20725;-64
2023/05/11 05:41:22;;;;;;;2.90;1.97;;;;;;;20.28;61.88;100160.81;5053586;28;20237;-64
2023/05/11 05:43:48;;;;;;;4.20;1.90;;;;;;;20.36;61.64;100166.22;5068859;28;20190;-64
2023/05/11 05:46:14;;;;;;;3.37;1.87;;;;;;;20.40;62.46;100172.81;5070419;28;20179;-65
2023/05/11 05:48:40;;;;;;;3.40;1.67;;;;;;;20.44;62.74;100167.09;5069681;28;20183;-64
2023/05/11 05:51:05;;;;;;;3.00;1.60;;;;;;;20.46;63.19;100176.97;5070515;28;20486;-64
2023/05/11 05:53:31;;;;;;;6.23;1.53;;;;;;;20.47;63.15;100172.06;5050130;28;20859;-64
2023/05/11 05:55:56;;;;;;;2.73;1.40;;;;;;;20.47;63.54;100174.94;5051592;28;20190;-64
2023/05/11 05:58:22;;;;;;;3.77;1.43;;;;;;;20.53;63.17;100168.41;5069978;28;20191;-64
2023/05/11 06:00:48;;;;;;;4.63;1.40;;;;;;;20.56;63.56;100176.22;5069904;28;20195;-65
2023/05/11 06:03:13;;;;;;;5.00;1.60;;;;;;;20.62;65.11;100171.75;5068805;28;20183;-64
2023/05/11 06:05:38;;;;;;;3.90;1.70;;;;;;;20.67;65.30;100170.56;5082284;28;20183;-63
2023/05/11 06:08:04;;;;;;;3.03;1.80;;;;;;;20.69;65.04;100177.56;5068896;28;20209;-64
2023/05/11 06:10:29;;;;;;;7.20;2.10;;;;;;;20.70;65.31;100166.88;5063875;28;20215;-64
2023/05/11 06:12:55;;;;;;;4.27;1.53;;;;;;;20.73;66.64;100169.78;5068897;28;20235;-64
2023/05/11 06:15:21;;;;;;;5.43;1.60;;;;;;;20.69;66.36;100179.59;5070297;28;20191;-64
2023/05/11 06:17:47;;;;;;;7.33;1.63;;;;;;;20.59;66.75;100178.31;5050574;28;20917;-64
2023/05/11 06:20:13;;;;;;;5.20;1.90;;;;;;;20.52;66.50;100175.34;5048265;28;20492;-64
2023/05/11 06:22:38;;;;;;;8.53;1.73;;;;;;;20.47;65.73;100172.84;5070306;28;20249;-64
2023/05/11 06:25:04;;;;;;;4.57;1.73;;;;;;;20.44;65.12;100173.69;5063259;28;20194;-63
2023/05/11 06:27:30;;;;;;;3.40;2.33;;;;;;;20.46;63.81;100185.56;5059233;28;20226;-64
2023/05/11 06:29:55;;;;;;;3.03;1.87;;;;;;;20.45;63.38;100181.03;5064184;28;20495;-64
2023/05/11 06:32:21;;;;;;;2.67;1.73;;;;;;;20.41;63.76;100185.13;5045629;28;20218;-65
2023/05/11 06:34:46;;;;;;;3.27;1.60;;;;;;;20.38;63.56;100181.00;5071696;28;20182;-65
2023/05/11 06:37:19;;;;;;;6.40;1.87;;;;;;;20.38;62.93;100192.47;5087114;28;20479;-65
2023/05/11 06:39:44;;;;;;;5.00;1.83;;;;;;;20.38;62.84;100186.75;5078589;28;20202;-65
2023/05/11 06:42:10;;;;;;;2.73;1.60;;;;;;;20.38;62.67;100180.16;5089574;28;20427;-65
2023/05/11 06:44:35;;;;;;;4.80;1.40;;;;;;;20.39;62.77;100179.78;5084069;28;20625;-65
2023/05/11 06:47:01;;;;;;;4.80;2.13;;;;;;;20.37;62.66;100175.66;5070053;28;20206;-65
2023/05/11 06:49:26;;;;;;;6.70;2.00;;;;;;;20.35;63.40;100183.81;5078810;28;20180;-64
2023/05/11 06:51:52;;;;;;;7.20;2.33;;;;;;;20.28;63.80;100176.00;5089988;28;20175;-64
2023/05/11 06:54:17;;;;;;;10.13;2.27;;;;;;;20.30;64.35;100184.19;5075636;28;20157;-65
2023/05/11 06:56:43;;;;;;;6.93;2.10;;;;;;;20.31;64.40;100180.91;5093227;28;20204;-65
2023/05/11 06:59:08;;;;;;;3.17;1.80;;;;;;;20.34;64.00;100180.13;5098581;28;20173;-65
2023/05/11 07:01:34;;;;;;;2.87;1.43;;;;;;;20.38;63.72;100180.16;5091492;28;20171;-65
2023/05/11 07:03:59;;;;;;;4.50;1.80;;;;;;;20.38;63.52;100181.00;5095878;28;20167;-65
2023/05/11 07:06:25;;;;;;;11.43;1.63;;;;;;;20.39;63.22;100178.94;5090620;28;20183;-65
2023/05/11 07:08:50;;;;;;;7.93;1.57;;;;;;;20.39;63.59;100179.78;5073945;28;20191;-65
2023/05/11 07:11:15;;;;;;;4.87;1.97;;;;;;;20.39;63.72;100191.25;5095236;28;20172;-65
2023/05/11 07:13:41;;;;;;;9.67;1.80;;;;;;;20.39;63.71;100181.81;5077624;28;20179;-65
2023/05/11 07:16:06;;;;;;;4.57;1.63;;;;;;;20.40;64.17;100183.44;5080143;28;20212;-65
2023/05/11 07:18:32;;;;;;;5.80;1.50;;;;;;;20.39;64.05;100176.06;5084330;28;20198;-65
2023/05/11 07:20:57;;;;;;;4.83;1.70;;;;;;;20.39;64.34;100176.91;5095386;28;20170;-65
2023/05/11 07:23:23;;;;;;;3.10;1.67;;;;;;;20.39;64.17;100185.50;5093017;28;20159;-65
2023/05/11 07:25:48;;;;;;;4.90;1.60;;;;;;;20.38;64.24;100181.00;5094123;28;20167;-65
2023/05/11 07:28:14;;;;;;;4.27;1.57;;;;;;;20.37;64.47;100190.78;5094438;28;20249;-65
2023/05/11 07:30:40;;;;;;;6.80;1.80;;;;;;;20.36;64.46;100188.34;5094991;28;20193;-65
2023/05/11 07:33:05;;;;;;;4.90;1.87;;;;;;;20.37;64.69;100185.06;5094159;28;20147;-65
2023/05/11 07:35:31;;;;;;;3.97;1.77;;;;;;;20.37;64.84;100185.06;5075707;28;20449;-65
2023/05/11 07:37:56;;;;;;;4.63;1.77;;;;;;;20.37;64.62;100184.25;5094544;28;20199;-65
2023/05/11 07:40:21;;;;;;;4.10;1.70;;;;;;;20.38;64.98;100185.91;5093737;28;20171;-65
2023/05/11 07:42:47;;;;;;;4.33;1.53;;;;;;;20.36;64.70;100183.41;5093856;28;20176;-65
2023/05/11 07:45:12;;;;;;;4.83;2.07;;;;;;;20.37;65.21;100187.13;5096373;28;20179;-65
2023/05/11 07:47:38;;;;;;;5.20;1.67;;;;;;;20.37;64.87;100192.84;5094490;28;20176;-65
2023/05/11 07:50:04;;;;;;;5.37;1.87;;;;;;;20.35;65.26;100192.41;5093197;28;20205;-65
2023/05/11 07:52:29;;;;;;;3.70;2.00;;;;;;;20.36;65.24;100194.91;5093308;28;20254;-66
2023/05/11 07:54:55;;;;;;;4.70;1.60;;;;;;;20.35;65.25;100195.28;5093559;28;20156;-65
2023/05/11 07:57:20;;;;;;;4.53;1.50;;;;;;;20.35;65.36;100184.66;5076472;28;20159;-65
2023/05/11 07:59:46;;;;;;;6.60;1.90;;;;;;;20.35;65.47;100187.50;5059586;28;20178;-66
2023/05/11 08:02:11;;;;;;;3.30;1.53;;;;;;;20.35;65.34;100190.38;5077054;28;20198;-65
2023/05/11 08:04:37;;;;;;;3.47;1.53;;;;;;;20.35;65.53;100193.25;5075905;28;20151;-65
2023/05/11 08:07:03;;;;;;;2.50;1.30;;;;;;;20.33;65.47;100195.69;5092870;28;20167;-63
2023/05/11 08:09:28;;;;;;;4.10;1.50;;;;;;;20.34;65.88;100187.91;5093562;28;20191;-63
2023/05/11 08:11:55;;;;;;;5.77;1.63;;;;;;;20.33;65.90;100200.59;5102508;28;20182;-64
2023/05/11 08:14:21;;;;;;;4.47;1.40;;;;;;;20.33;65.69;100195.69;5093948;28;20218;-64
2023/05/11 08:16:48;;;;;;;5.23;1.50;;;;;;;20.34;65.92;100191.59;5092686;28;20491;-64
2023/05/11 08:19:13;;;;;;;3.30;1.80;;;;;;;20.33;65.36;100194.88;5060096;28;20491;-64
2023/05/11 08:21:39;;;;;;;2.00;1.40;;;;;;;20.35;66.05;100198.16;5094054;28;20413;-64
2023/05/11 08:24:05;;;;;;;4.83;1.77;;;;;;;20.34;66.06;100196.50;5075399;28;20156;-64
2023/05/11 08:26:31;;;;;;;2.80;1.07;;;;;;;20.33;66.38;100194.88;5076018;28;20179;-64
2023/05/11 08:28:57;;;;;;;3.53;1.10;;;;;;;20.32;66.48;100196.91;5094129;28;20175;-64
2023/05/11 08:31:22;;;;;;;2.17;1.23;;;;;;;20.31;66.14;100197.31;5078802;28;20410;-64
2023/05/11 08:33:48;;;;;;;6.63;1.47;;;;;;;20.31;66.46;100195.25;5075406;28;20216;-64
2023/05/11 08:36:14;;;;;;;4.27;1.63;;;;;;;20.33;65.88;100189.13;5093970;28;20174;-64
2023/05/11 08:38:39;;;;;;;5.93;1.63;;;;;;;20.30;66.06;100201.38;5076354;28;20183;-64
2023/05/11 08:41:06;;;;;;;3.43;1.40;;;;;;;20.29;66.26;100200.56;5092493;28;20432;-64
2023/05/11 08:43:33;;;;;;;6.90;1.20;;;;;;;20.30;66.35;100202.22;5093346;28;20200;-64
2023/05/11 08:46:00;;;;;;;4.30;1.50;;;;;;;20.30;66.05;100199.34;5075011;28;20508;-65
2023/05/11 08:48:26;;;;;;;3.43;1.40;;;;;;;20.30;66.58;100207.94;5043089;28;20421;-65
2023/05/11 08:50:51;;;;;;;2.50;1.50;;;;;;;20.30;66.17;100205.09;5075940;28;20402;-64
2023/05/11 08:53:17;;;;;;;4.70;1.73;;;;;;;20.29;66.83;100200.56;5092823;28;20151;-65
2023/05/11 08:55:42;;;;;;;3.20;1.47;;;;;;;20.28;66.64;100201.78;5076546;28;20237;-65
2023/05/11 08:58:08;;;;;;;4.67;2.13;;;;;;;20.28;66.79;100203.84;5080328;28;20273;-65
2023/05/11 09:00:33;;;;;;;5.10;1.97;;;;;;;20.28;66.55;100198.94;5081711;28;20182;-65
2023/05/11 09:02:59;;;;;;;3.17;1.40;;;;;;;20.28;66.90;100195.22;5079702;28;20195;-64
2023/05/11 09:05:25;;;;;;;4.33;1.40;;;;;;;20.28;66.71;100198.94;5097207;28;20163;-64
2023/05/11 09:07:52;;;;;;;2.80;1.67;;;;;;;20.27;66.51;100199.31;5096649;28;20202;-65
2023/05/11 09:10:18;;;;;;;2.63;1.50;;;;;;;20.27;67.01;100197.25;5080212;28;20237;-65
2023/05/11 09:12:44;;;;;;;9.80;1.67;;;;;;;20.28;66.94;100193.19;5097738;28;20422;-65
2023/05/11 09:15:10;;;;;;;4.50;1.47;;;;;;;20.27;66.70;100197.25;5097447;28;20166;-65
2023/05/11 09:17:35;;;;;;;5.00;1.50;;;;;;;20.25;66.79;100205.44;5096910;28;20252;-65
2023/05/11 09:20:04;;;;;;;2.10;1.40;;;;;;;20.25;66.68;100202.56;5097510;28;20418;-65
2023/05/11 09:22:32;;;;;;;2.97;1.37;;;;;;;20.25;66.76;100199.72;5097361;28;20175;-64
2023/05/11 09:24:58;;;;;;;2.43;1.37;;;;;;;20.24;66.72;100192.34;5097017;28;20443;-64
2023/05/11 09:27:24;;;;;;;6.77;1.77;;;;;;;20.25;67.07;100193.97;5062565;28;20448;-64
2023/05/11 09:29:51;;;;;;;1.80;1.20;;;;;;;20.25;66.84;100188.25;5097631;28;20389;-64
2023/05/11 09:32:17;;;;;;;2.47;1.40;;;;;;;20.26;66.90;100184.16;5096276;28;20195;-65
2023/05/11 09:34:42;;;;;;;2.20;1.20;;;;;;;20.26;66.77;100189.06;5097023;28;20429;-65
2023/05/11 09:37:15;;;;;;;3.00;1.40;;;;;;;20.25;67.02;100181.66;5096352;28;20179;-64
2023/05/11 09:39:40;;;;;;;3.07;1.37;;;;;;;20.27;66.55;100185.78;5079755;28;20404;-65
2023/05/11 09:42:16;;;;;;;3.90;1.50;;;;;;;20.27;66.78;100182.91;5063192;28;20402;-65
2023/05/11 09:44:42;;;;;;;2.87;1.50;;;;;;;20.28;66.89;100187.47;5096170;28;20190;-65
2023/05/11 09:47:16;;;;;;;7.37;1.80;;;;;;;20.29;66.96;100182.53;5096488;28;20425;-64
2023/05/11 09:49:43;;;;;;;3.90;1.50;;;;;;;20.28;66.88;100181.72;5097135;28;20421;-64
2023/05/11 09:52:09;;;;;;;3.00;1.10;;;;;;;20.30;66.72;100181.31;5097475;28;20416;-64
2023/05/11 09:54:40;;;;;;;2.07;1.33;;;;;;;20.28;66.85;100181.72;5097609;28;20433;-64
2023/05/11 09:57:07;;;;;;;3.30;1.30;;;;;;;20.29;66.92;100179.66;5095941;28;20429;-64
2023/05/11 09:59:37;;;;;;;3.10;1.50;;;;;;;20.29;67.09;100171.91;5096017;28;20488;-64
2023/05/11 10:02:21;;;;;;;2.63;1.20;;;;;;;20.29;66.72;100183.38;5092095;28;20776;-65
2023/05/11 10:04:47;;;;;;;3.97;1.73;;;;;;;20.29;66.62;100171.06;5096928;28;20428;-64
2023/05/11 10:07:32;;;;;;;2.60;1.40;;;;;;;20.29;66.81;100174.78;5089114;28;20444;-64
2023/05/11 10:10:05;;;;;;;2.23;1.37;;;;;;;20.29;66.88;100169.03;5079872;28;20412;-64
2023/05/11 10:12:32;;;;;;;2.53;1.47;;;;;;;20.29;67.02;100174.78;5095580;28;20436;-64
2023/05/11 10:15:00;;;;;;;3.20;1.40;;;;;;;20.29;67.23;100166.16;5096320;28;20426;-64
2023/05/11 10:17:26;;;;;;;5.63;2.00;;;;;;;20.29;67.09;100166.16;5096013;28;20455;-64
2023/05/11 10:19:52;;;;;;;3.20;1.30;;;;;;;20.30;67.34;100156.34;5096696;28;20410;-64
2023/05/11 10:22:17;;;;;;;2.20;1.20;;;;;;;20.30;66.70;100162.06;5061803;28;20174;-64
2023/05/11 10:24:43;;;;;;;4.57;1.63;;;;;;;20.30;66.72;100164.94;5079602;28;20414;-64
2023/05/11 10:27:09;;;;;;;3.77;1.77;;;;;;;20.29;66.88;100153.88;5075976;28;20191;-65
2023/05/11 10:29:36;;;;;;;3.53;1.47;;;;;;;20.30;66.78;100161.25;5094475;28;20152;-64
2023/05/11 10:32:02;;;;;;;5.03;1.63;;;;;;;20.27;67.10;100151.38;5093847;28;20483;-64
2023/05/11 10:34:27;;;;;;;2.87;1.60;;;;;;;20.29;66.95;100163.31;5058743;28;20437;-64
2023/05/11 10:36:53;;;;;;;7.03;1.50;;;;;;;20.29;67.07;100154.69;5076085;28;20152;-64
2023/05/11 10:39:18;;;;;;;2.13;1.10;;;;;;;20.30;66.91;100164.09;5077322;28;20257;-64
2023/05/11 10:42:12;;;;;;;2.80;1.73;;;;;;;20.28;67.29;100158.78;5076569;28;21192;-64
2023/05/11 10:44:53;;;;;;;2.27;1.30;;;;;;;20.28;66.89;100158.78;5075341;28;20213;-64
2023/05/11 10:47:57;;;;;;;2.40;1.30;;;;;;;20.29;66.84;100148.97;5043837;28;20423;-64
2023/05/11 10:50:50;;;;;;;2.20;1.27;;;;;;;20.30;66.71;100142.00;5093082;28;20396;-64
2023/05/11 10:53:24;;;;;;;3.60;1.33;;;;;;;20.30;67.01;100144.88;5075096;28;20414;-64
2023/05/11 10:56:06;;;;;;;2.30;1.37;;;;;;;20.30;67.24;100144.88;5092193;28;20416;-64
2023/05/11 10:58:50;;;;;;;2.90;1.20;;;;;;;20.29;66.94;100146.09;5076982;28;20464;-64
2023/05/11 11:01:38;;;;;;;2.53;1.20;;;;;;;20.28;67.27;100140.75;5094643;28;20429;-64
2023/05/11 11:04:05;;;;;;;3.17;1.40;;;;;;;20.28;67.29;100135.84;5077063;28;20456;-64
2023/05/11 11:06:32;;;;;;;3.90;1.30;;;;;;;20.29;67.01;100145.25;5080338;28;20404;-64
2023/05/11 11:08:59;;;;;;;4.60;1.70;;;;;;;20.29;67.01;100139.53;5077226;28;20947;-64
2023/05/11 11:11:39;;;;;;;2.60;1.57;;;;;;;20.29;67.18;100133.78;5095447;28;20485;-64
2023/05/11 11:14:05;;;;;;;2.40;1.40;;;;;;;20.29;67.05;100137.50;5095624;28;20406;-64
2023/05/11 11:16:32;;;;;;;2.70;1.20;;;;;;;20.30;67.03;100138.31;5093146;28;20489;-64
2023/05/11 11:19:29;;;;;;;2.90;1.63;;;;;;;20.30;66.93;100133.41;5093332;28;20827;-64
2023/05/11 11:21:57;;;;;;;2.23;1.30;;;;;;;20.31;66.92;100128.50;5093399;28;20405;-64
2023/05/11 11:24:37;;;;;;;2.33;1.50;;;;;;;20.31;67.28;100129.31;5075443;28;20496;-64